Time;durP1;ratioP1;P1;durP2;ratioP2;P2;SDS_P1;SDS_P2;PMS_P1;PMS_P2;Temp;Humidity;BMP_temperature;BMP_pressure;BME280_temperature;BME280_humidity;BME280_pressure;Samples;Min_cycle;Max_cycle;Signal;HPM_P1;HPM_P2
2022/09/24 00:02:25;;;;;;;1.67;1.57;;;10.80;99.90;;;;;;4988288;28;20428;-68
2022/09/24 00:05:15;;;;;;;0.40;0.40;;;10.80;99.90;;;;;;4977842;28;20912;-68
2022/09/24 00:08:03;;;;;;;0.50;0.50;;;10.80;99.90;;;;;;4975271;28;20480;-68
2022/09/24 00:10:51;;;;;;;0.40;0.40;;;10.80;99.90;;;;;;4975724;28;20582;-69
2022/09/24 00:13:40;;;;;;;0.40;0.40;;;10.80;99.90;;;;;;4975589;28;20428;-68
2022/09/24 00:16:32;;;;;;;0.40;0.40;;;10.80;99.90;;;;;;4974836;28;20554;-68
2022/09/24 00:19:21;;;;;;;0.50;0.50;;;10.80;99.90;;;;;;4973907;28;20483;-67
2022/09/24 00:22:10;;;;;;;0.47;0.47;;;10.90;99.90;;;;;;4975020;28;20436;-68
2022/09/24 00:28:04;;;;;;;0.40;0.40;;;10.90;99.90;;;;;;4974120;28;20463;-67
2022/09/24 00:30:52;;;;;;;1.10;1.10;;;10.80;99.90;;;;;;4973686;28;20475;-68
2022/09/24 00:33:40;;;;;;;0.40;0.40;;;10.80;99.90;;;;;;4973738;28;20456;-67
2022/09/24 00:36:28;;;;;;;0.40;0.40;;;10.80;99.90;;;;;;4973554;28;20845;-68
2022/09/24 00:39:18;;;;;;;0.60;0.60;;;10.80;99.90;;;;;;4973392;28;20456;-67
2022/09/24 00:42:06;;;;;;;0.40;0.40;;;10.80;99.90;;;;;;4976669;28;20442;-69
2022/09/24 00:44:55;;;;;;;0.40;0.40;;;10.80;99.90;;;;;;4977047;28;20559;-68
2022/09/24 00:47:43;;;;;;;0.40;0.40;;;10.80;99.90;;;;;;4976637;28;20963;-69
2022/09/24 00:50:33;;;;;;;0.40;0.40;;;10.80;99.90;;;;;;4975635;28;20423;-69
2022/09/24 00:53:27;;;;;;;0.40;0.40;;;10.80;99.90;;;;;;4976714;28;20490;-68
2022/09/24 00:56:19;;;;;;;0.70;0.70;;;10.80;99.90;;;;;;4976435;28;20587;-69
2022/09/24 00:59:11;;;;;;;0.57;0.57;;;10.90;99.90;;;;;;4975871;28;20567;-68
2022/09/24 01:01:59;;;;;;;0.40;0.40;;;10.90;99.90;;;;;;4975482;28;20467;-68
2022/09/24 01:04:48;;;;;;;0.50;0.50;;;10.90;99.90;;;;;;4979896;28;20558;-69
2022/09/24 01:07:41;;;;;;;0.40;0.40;;;10.90;99.90;;;;;;4976158;28;20428;-69
2022/09/24 01:10:49;;;;;;;0.40;0.40;;;10.90;99.90;;;;;;4974890;28;20484;-68
2022/09/24 01:14:02;;;;;;;0.40;0.40;;;10.90;99.90;;;;;;5046850;23;1018254;-68
2022/09/24 01:16:56;;;;;;;0.40;0.40;;;10.90;99.90;;;;;;5073723;28;20201;-69
2022/09/24 01:20:03;;;;;;;0.40;0.40;;;11.00;99.90;;;;;;5073996;28;20469;-70
2022/09/24 01:23:03;;;;;;;0.40;0.40;;;11.00;99.90;;;;;;5073906;28;20443;-68
2022/09/24 01:26:08;;;;;;;0.40;0.40;;;11.00;99.90;;;;;;5073936;28;20557;-68
2022/09/24 01:29:05;;;;;;;0.40;0.40;;;11.00;99.90;;;;;;5073657;28;20451;-69
2022/09/24 01:32:01;;;;;;;0.40;0.40;;;11.00;99.90;;;;;;5075744;28;20554;-69
2022/09/24 01:34:55;;;;;;;0.40;0.40;;;11.00;99.90;;;;;;5076261;28;20447;-69
2022/09/24 01:37:47;;;;;;;0.40;0.40;;;11.00;99.90;;;;;;5075172;28;20511;-69
2022/09/24 01:40:37;;;;;;;0.40;0.40;;;11.00;99.90;;;;;;5077354;28;20476;-68
2022/09/24 01:43:29;;;;;;;0.40;0.40;;;11.00;99.90;;;;;;5074661;28;20435;-69
2022/09/24 01:46:19;;;;;;;1.10;1.10;;;11.00;99.90;;;;;;5069186;28;20467;-70
2022/09/24 01:49:09;;;;;;;0.70;0.70;;;11.00;99.90;;;;;;5075254;28;20853;-70
2022/09/24 01:52:01;;;;;;;0.40;0.40;;;11.00;99.90;;;;;;5072271;28;20443;-68
2022/09/24 01:54:51;;;;;;;0.40;0.40;;;11.10;99.90;;;;;;5072730;28;20520;-68
2022/09/24 01:57:43;;;;;;;0.40;0.40;;;11.10;99.90;;;;;;5073145;28;20789;-68
2022/09/24 02:00:32;;;;;;;0.40;0.40;;;11.10;99.90;;;;;;5072703;28;20503;-71
2022/09/24 02:03:25;;;;;;;0.40;0.40;;;11.10;99.90;;;;;;5072786;28;20443;-69
2022/09/24 02:06:18;;;;;;;0.40;0.40;;;11.10;99.90;;;;;;5073621;28;20526;-68
2022/09/24 02:09:26;;;;;;;0.40;0.40;;;11.10;99.90;;;;;;5071752;28;20463;-70
2022/09/24 02:12:19;;;;;;;0.40;0.40;;;11.10;99.90;;;;;;5073694;28;20462;-69
2022/09/24 02:15:10;;;;;;;0.97;0.97;;;11.10;99.90;;;;;;5073142;28;20525;-68
2022/09/24 02:18:03;;;;;;;0.40;0.40;;;11.10;99.90;;;;;;5074005;28;20530;-69
2022/09/24 02:20:52;;;;;;;0.40;0.40;;;11.10;99.90;;;;;;5072360;28;20990;-69
2022/09/24 02:23:47;;;;;;;0.40;0.40;;;11.10;99.90;;;;;;5073210;28;20439;-70
2022/09/24 02:26:35;;;;;;;0.50;0.50;;;11.10;99.90;;;;;;5084676;28;20501;-70
2022/09/24 02:29:23;;;;;;;0.40;0.40;;;11.10;99.90;;;;;;5092430;28;20491;-70
2022/09/24 02:32:14;;;;;;;0.40;0.40;;;11.20;99.90;;;;;;5093370;28;20478;-70
2022/09/24 02:35:05;;;;;;;0.40;0.40;;;11.10;99.90;;;;;;5093780;28;20473;-70
2022/09/24 02:37:53;;;;;;;0.40;0.40;;;11.10;99.90;;;;;;5094543;28;20431;-71
2022/09/24 02:40:43;;;;;;;0.47;0.47;;;11.10;99.90;;;;;;5093819;28;20455;-70
2022/09/24 02:43:34;;;;;;;0.40;0.40;;;11.00;99.90;;;;;;5092686;28;20451;-69
2022/09/24 02:46:23;;;;;;;0.40;0.40;;;11.00;99.90;;;;;;5088985;28;20451;-69
2022/09/24 02:49:11;;;;;;;0.40;0.40;;;11.00;99.90;;;;;;5092517;28;20454;-71
2022/09/24 02:52:00;;;;;;;0.40;0.40;;;11.00;99.90;;;;;;5092244;28;20455;-70
2022/09/24 02:54:49;;;;;;;0.40;0.40;;;11.00;99.90;;;;;;5091639;28;20427;-69
2022/09/24 02:57:38;;;;;;;0.40;0.40;;;11.00;99.90;;;;;;5088994;28;20463;-69
2022/09/24 03:00:27;;;;;;;0.40;0.40;;;11.00;99.90;;;;;;5075585;28;20509;-69
2022/09/24 03:03:15;;;;;;;0.40;0.40;;;11.00;99.90;;;;;;5073419;28;20439;-69
2022/09/24 03:06:04;;;;;;;0.40;0.40;;;11.00;99.90;;;;;;5073577;28;20455;-69
2022/09/24 03:08:53;;;;;;;0.40;0.40;;;10.90;99.90;;;;;;5072078;28;20875;-69
2022/09/24 03:11:41;;;;;;;0.40;0.40;;;11.00;99.90;;;;;;5072268;28;20457;-69
2022/09/24 03:14:30;;;;;;;0.40;0.40;;;10.90;99.90;;;;;;5072554;28;20484;-69
2022/09/24 03:17:18;;;;;;;0.40;0.40;;;10.90;99.90;;;;;;5071898;28;20450;-69
2022/09/24 03:20:07;;;;;;;0.40;0.40;;;11.00;99.90;;;;;;5074086;28;20476;-68
2022/09/24 03:22:55;;;;;;;0.40;0.40;;;10.90;99.90;;;;;;5071960;28;20447;-69
2022/09/24 03:25:43;;;;;;;0.40;0.40;;;11.00;99.90;;;;;;5073388;28;20613;-69
2022/09/24 03:28:32;;;;;;;0.40;0.40;;;10.90;99.90;;;;;;5072137;28;20947;-68
2022/09/24 03:31:22;;;;;;;0.40;0.40;;;10.90;99.90;;;;;;5072073;28;20419;-68
2022/09/24 03:34:11;;;;;;;0.40;0.40;;;10.90;99.90;;;;;;5064037;28;20982;-68
2022/09/24 03:36:59;;;;;;;0.40;0.40;;;10.90;99.90;;;;;;5070769;28;20839;-69
2022/09/24 03:39:47;;;;;;;0.40;0.40;;;10.90;99.90;;;;;;5071960;28;20439;-68
2022/09/24 03:42:35;;;;;;;0.40;0.40;;;10.90;99.90;;;;;;5071502;28;20497;-69
2022/09/24 03:45:24;;;;;;;0.40;0.40;;;10.90;99.90;;;;;;5071445;28;20459;-68
2022/09/24 03:48:13;;;;;;;0.40;0.40;;;10.90;99.90;;;;;;5072582;28;20453;-69
2022/09/24 03:51:03;;;;;;;0.40;0.40;;;10.90;99.90;;;;;;5072658;28;20510;-68
2022/09/24 03:53:52;;;;;;;0.40;0.40;;;10.90;99.90;;;;;;5070802;28;20485;-69
2022/09/24 03:56:40;;;;;;;0.40;0.40;;;10.90;99.90;;;;;;5070716;28;21023;-69
2022/09/24 03:59:28;;;;;;;0.40;0.40;;;10.90;99.90;;;;;;5071043;28;20438;-68
2022/09/24 04:02:16;;;;;;;0.40;0.40;;;10.90;99.90;;;;;;5072622;28;20577;-69
2022/09/24 04:05:06;;;;;;;1.00;1.00;;;10.90;99.90;;;;;;5071261;28;20459;-69
2022/09/24 04:07:54;;;;;;;0.60;0.60;;;10.80;99.90;;;;;;5070687;28;20422;-69
2022/09/24 04:10:45;;;;;;;0.70;0.70;;;10.90;99.90;;;;;;5072226;28;20455;-69
2022/09/24 04:13:33;;;;;;;0.40;0.40;;;10.90;99.90;;;;;;5071227;28;20487;-69
2022/09/24 04:16:21;;;;;;;0.40;0.40;;;10.80;99.90;;;;;;5074366;28;20510;-68
2022/09/24 04:19:10;;;;;;;0.40;0.40;;;10.80;99.90;;;;;;5074428;28;20504;-70
2022/09/24 04:22:00;;;;;;;0.40;0.40;;;10.80;99.90;;;;;;5076042;28;20459;-68
2022/09/24 04:24:48;;;;;;;0.40;0.40;;;10.80;99.90;;;;;;5074821;28;20480;-69
2022/09/24 04:27:36;;;;;;;0.40;0.40;;;10.70;99.90;;;;;;5074649;28;20903;-69
2022/09/24 04:30:25;;;;;;;0.50;0.50;;;10.60;99.90;;;;;;5074425;28;20501;-68
2022/09/24 04:33:13;;;;;;;0.40;0.40;;;10.50;99.90;;;;;;5075652;28;20876;-69
2022/09/24 04:36:02;;;;;;;0.40;0.40;;;10.40;99.90;;;;;;5074470;28;20517;-68
2022/09/24 04:38:51;;;;;;;0.40;0.40;;;10.40;99.90;;;;;;5074092;28;20505;-68
2022/09/24 04:41:39;;;;;;;0.40;0.40;;;10.20;99.90;;;;;;5075366;28;20520;-69
2022/09/24 04:44:27;;;;;;;0.40;0.40;;;10.20;99.90;;;;;;5074105;28;20508;-68
2022/09/24 04:47:16;;;;;;;0.40;0.40;;;10.20;99.90;;;;;;5075758;28;20823;-68
2022/09/24 04:50:05;;;;;;;0.40;0.40;;;10.00;99.90;;;;;;5074915;28;20510;-70
2022/09/24 04:52:53;;;;;;;0.40;0.40;;;9.90;99.90;;;;;;5075072;28;20470;-69
2022/09/24 04:55:43;;;;;;;0.40;0.40;;;9.80;99.90;;;;;;5074068;28;20427;-68
2022/09/24 04:58:32;;;;;;;0.40;0.40;;;9.70;99.90;;;;;;5074539;28;20770;-69
2022/09/24 05:01:20;;;;;;;0.40;0.40;;;9.70;99.90;;;;;;5074770;28;20497;-68
2022/09/24 05:04:08;;;;;;;0.40;0.40;;;9.70;99.90;;;;;;5074519;28;20467;-69
2022/09/24 05:06:57;;;;;;;0.40;0.40;;;9.70;99.90;;;;;;5075367;28;20474;-68
2022/09/24 05:09:45;;;;;;;0.40;0.40;;;9.80;99.90;;;;;;5075346;28;20991;-69
2022/09/24 05:12:35;;;;;;;0.40;0.40;;;9.90;99.90;;;;;;5073462;28;20541;-70
2022/09/24 05:15:23;;;;;;;0.40;0.40;;;10.00;99.90;;;;;;5075567;28;20481;-69
2022/09/24 05:18:11;;;;;;;0.40;0.40;;;10.00;99.90;;;;;;5067965;28;20508;-69
2022/09/24 05:20:59;;;;;;;0.40;0.40;;;10.10;99.90;;;;;;5074969;28;20434;-69
2022/09/24 05:23:47;;;;;;;0.40;0.40;;;10.10;99.90;;;;;;5073470;28;20516;-69
2022/09/24 05:29:43;;;;;;;0.40;0.40;;;10.10;99.90;;;;;;5073408;28;20550;-69
2022/09/24 05:32:32;;;;;;;0.40;0.40;;;10.10;99.90;;;;;;5073683;28;20439;-70
2022/09/24 05:35:21;;;;;;;0.40;0.40;;;10.00;99.90;;;;;;5075337;28;20420;-68
2022/09/24 05:38:10;;;;;;;0.40;0.40;;;10.00;99.90;;;;;;5073835;28;20419;-69
2022/09/24 05:40:58;;;;;;;0.40;0.40;;;10.00;99.90;;;;;;5074239;28;20466;-70
2022/09/24 05:43:47;;;;;;;0.40;0.40;;;10.10;99.90;;;;;;5074109;28;20454;-69
2022/09/24 05:46:37;;;;;;;0.40;0.40;;;10.10;99.90;;;;;;5075984;28;20455;-69
2022/09/24 05:49:25;;;;;;;0.40;0.40;;;10.20;99.90;;;;;;5074011;28;20420;-68
2022/09/24 05:52:13;;;;;;;0.40;0.40;;;10.30;99.90;;;;;;5074367;28;20982;-68
2022/09/24 05:55:01;;;;;;;0.40;0.40;;;10.40;99.90;;;;;;5074693;28;20870;-69
2022/09/24 05:57:50;;;;;;;0.40;0.40;;;10.50;99.90;;;;;;5072996;28;20421;-68
2022/09/24 06:00:38;;;;;;;0.40;0.40;;;10.60;99.90;;;;;;5072724;28;20518;-71
2022/09/24 06:03:28;;;;;;;0.40;0.40;;;10.60;99.90;;;;;;5066237;28;20443;-69
2022/09/24 06:06:16;;;;;;;0.40;0.40;;;10.70;99.90;;;;;;5057000;28;20461;-68
2022/09/24 06:09:04;;;;;;;0.40;0.40;;;10.80;99.90;;;;;;5055820;28;20493;-71
2022/09/24 06:11:53;;;;;;;0.40;0.40;;;11.00;99.90;;;;;;5055075;28;21027;-70
2022/09/24 06:14:42;;;;;;;0.50;0.50;;;10.90;99.90;;;;;;5067861;28;20454;-69
2022/09/24 06:17:30;;;;;;;0.57;0.57;;;11.00;99.90;;;;;;5070823;28;20491;-69
2022/09/24 06:20:20;;;;;;;0.40;0.40;;;11.10;99.90;;;;;;5075922;28;20431;-69
2022/09/24 06:23:08;;;;;;;2.80;2.70;;;11.20;99.90;;;;;;5089572;28;20447;-69
2022/09/24 06:25:56;;;;;;;0.40;0.40;;;11.30;99.90;;;;;;5089097;28;20491;-70
2022/09/24 06:28:44;;;;;;;0.50;0.50;;;11.40;99.90;;;;;;5087253;28;20554;-69
2022/09/24 06:31:33;;;;;;;0.40;0.40;;;11.50;99.90;;;;;;5086948;28;20844;-70
2022/09/24 06:34:21;;;;;;;0.40;0.40;;;11.60;99.90;;;;;;5087044;28;20430;-70
2022/09/24 06:37:11;;;;;;;0.40;0.40;;;11.70;99.90;;;;;;5074276;28;20430;-69
2022/09/24 06:39:59;;;;;;;0.40;0.40;;;11.80;99.90;;;;;;5072806;28;20517;-69
2022/09/24 06:42:51;;;;;;;0.40;0.40;;;11.90;99.90;;;;;;5074959;28;20492;-68
2022/09/24 06:45:39;;;;;;;0.40;0.40;;;12.00;99.90;;;;;;5073898;28;20518;-69
2022/09/24 06:48:28;;;;;;;0.40;0.40;;;12.10;99.90;;;;;;5075087;28;20538;-69
2022/09/24 06:51:16;;;;;;;0.40;0.40;;;12.20;99.90;;;;;;5073152;28;20506;-70
2022/09/24 06:54:05;;;;;;;0.40;0.40;;;12.20;99.90;;;;;;5073166;28;20514;-69
2022/09/24 06:56:53;;;;;;;2.00;2.00;;;12.30;99.90;;;;;;5067765;28;20960;-69
2022/09/24 06:59:42;;;;;;;0.40;0.40;;;12.30;99.90;;;;;;5054484;28;20515;-69
2022/09/24 07:02:30;;;;;;;0.40;0.40;;;12.40;99.90;;;;;;5053697;28;20452;-69
2022/09/24 07:05:18;;;;;;;1.70;1.60;;;12.30;99.90;;;;;;5054509;28;20562;-68
2022/09/24 07:08:06;;;;;;;0.40;0.40;;;12.40;99.90;;;;;;5060449;28;20468;-69
2022/09/24 07:10:56;;;;;;;0.40;0.40;;;12.60;99.90;;;;;;5057701;28;20491;-69
2022/09/24 07:13:44;;;;;;;0.40;0.40;;;12.80;99.90;;;;;;5077461;23;20515;-68
2022/09/24 07:16:32;;;;;;;0.93;0.93;;;12.80;99.90;;;;;;5057551;28;21013;-67
2022/09/24 07:19:20;;;;;;;0.40;0.40;;;12.80;99.90;;;;;;5057746;28;20424;-68
2022/09/24 07:22:08;;;;;;;0.40;0.40;;;12.90;99.90;;;;;;5058647;28;20470;-68
2022/09/24 07:24:57;;;;;;;0.40;0.40;;;12.90;99.90;;;;;;5063993;28;20482;-69
2022/09/24 07:27:46;;;;;;;0.40;0.40;;;12.90;99.90;;;;;;5072107;28;20488;-70
2022/09/24 07:30:35;;;;;;;0.40;0.40;;;12.90;99.90;;;;;;5066031;28;20520;-68
2022/09/24 07:33:23;;;;;;;0.83;0.83;;;13.10;99.90;;;;;;5064641;28;21007;-69
2022/09/24 07:36:12;;;;;;;0.40;0.40;;;13.10;99.90;;;;;;5064346;28;20498;-69
2022/09/24 07:39:00;;;;;;;0.40;0.40;;;13.20;99.90;;;;;;5068465;28;20972;-70
2022/09/24 07:41:48;;;;;;;0.47;0.47;;;13.30;99.90;;;;;;5071846;28;20412;-69
2022/09/24 07:44:37;;;;;;;0.40;0.40;;;13.40;99.90;;;;;;5071510;28;20443;-69
2022/09/24 07:47:25;;;;;;;0.93;0.80;;;13.50;99.90;;;;;;5071299;28;20497;-71
2022/09/24 07:50:14;;;;;;;1.53;1.27;;;13.60;99.90;;;;;;5071828;28;20420;-69
2022/09/24 07:53:02;;;;;;;0.40;0.40;;;13.60;99.90;;;;;;5074119;28;20873;-70
2022/09/24 07:55:51;;;;;;;0.40;0.40;;;13.50;99.90;;;;;;5073504;28;20452;-68
2022/09/24 07:58:39;;;;;;;1.13;1.13;;;13.60;99.90;;;;;;5051056;28;20413;-68
2022/09/24 08:01:30;;;;;;;0.40;0.40;;;13.60;99.90;;;;;;5046073;28;20475;-68
2022/09/24 08:04:18;;;;;;;0.40;0.40;;;13.60;99.90;;;;;;5039050;28;20503;-68
2022/09/24 08:07:07;;;;;;;0.50;0.50;;;13.50;99.90;;;;;;5039860;28;20425;-68
2022/09/24 08:09:55;;;;;;;0.40;0.40;;;13.60;99.90;;;;;;5038847;28;20486;-67
2022/09/24 08:12:43;;;;;;;0.40;0.40;;;13.60;99.90;;;;;;5038649;28;20463;-68
2022/09/24 08:15:31;;;;;;;0.40;0.40;;;13.70;99.90;;;;;;5038561;28;20552;-68
2022/09/24 08:18:20;;;;;;;0.40;0.40;;;13.60;99.90;;;;;;5039519;28;20449;-68
2022/09/24 08:21:14;;;;;;;0.40;0.40;;;13.70;99.90;;;;;;5040242;28;20543;-69
2022/09/24 08:24:02;;;;;;;0.40;0.40;;;13.90;99.90;;;;;;5039608;28;20445;-68
2022/09/24 08:26:50;;;;;;;0.60;0.60;;;14.00;99.90;;;;;;5039405;28;20491;-69
2022/09/24 08:29:39;;;;;;;0.57;0.57;;;14.10;99.90;;;;;;5039091;28;20973;-68
2022/09/24 08:32:28;;;;;;;0.40;0.40;;;14.30;99.90;;;;;;5038320;28;20445;-69
2022/09/24 08:35:17;;;;;;;0.40;0.40;;;14.30;99.90;;;;;;5038087;28;20424;-69
2022/09/24 08:38:06;;;;;;;0.40;0.40;;;14.30;99.90;;;;;;5036607;28;20474;-69
2022/09/24 08:40:59;;;;;;;0.40;0.40;;;14.30;99.90;;;;;;5037394;28;20559;-69
2022/09/24 08:43:55;;;;;;;0.40;0.40;;;14.30;99.90;;;;;;5037782;28;20490;-69
2022/09/24 08:50:01;;;;;;;0.40;0.40;;;14.40;99.90;;;;;;5037247;28;20492;-69
2022/09/24 08:53:12;;;;;;;0.40;0.40;;;14.50;99.90;;;;;;5038625;28;20555;-69
2022/09/24 08:56:01;;;;;;;0.40;0.40;;;14.60;99.90;;;;;;5029193;28;20518;-69
2022/09/24 08:58:53;;;;;;;0.90;0.90;;;14.70;99.90;;;;;;5039261;28;20405;-68
2022/09/24 09:01:48;;;;;;;0.60;0.60;;;14.90;99.90;;;;;;5037948;28;20452;-68
2022/09/24 09:04:45;;;;;;;0.40;0.40;;;15.10;99.90;;;;;;5040090;28;20432;-69
2022/09/24 09:07:43;;;;;;;0.40;0.40;;;15.20;99.90;;;;;;5037434;28;20426;-68
2022/09/24 09:10:36;;;;;;;1.57;1.47;;;15.40;99.90;;;;;;5036363;28;20417;-67
2022/09/24 09:13:30;;;;;;;3.17;3.07;;;15.40;99.90;;;;;;5036668;28;20490;-68
2022/09/24 09:16:24;;;;;;;2.93;2.73;;;15.60;99.90;;;;;;5036490;28;20229;-69
2022/09/24 09:19:15;;;;;;;0.40;0.40;;;15.60;99.90;;;;;;5036251;28;20198;-68
2022/09/24 09:22:12;;;;;;;0.40;0.40;;;15.80;99.90;;;;;;5036918;28;20209;-67
2022/09/24 09:25:10;;;;;;;0.73;0.73;;;15.90;99.90;;;;;;5036545;28;20201;-68
2022/09/24 09:28:03;;;;;;;0.40;0.40;;;16.10;99.90;;;;;;5036630;28;20291;-68
2022/09/24 09:31:05;;;;;;;0.40;0.40;;;16.20;99.90;;;;;;5035403;28;20229;-68
2022/09/24 09:34:11;;;;;;;0.40;0.40;;;16.30;99.90;;;;;;5035933;28;20697;-68
2022/09/24 09:37:10;;;;;;;1.02;1.02;;;16.30;99.90;;;;;;5038003;28;20194;-68
2022/09/24 09:40:12;;;;;;;0.40;0.40;;;16.30;99.90;;;;;;5036525;28;20702;-68
2022/09/24 09:43:04;;;;;;;0.40;0.40;;;16.30;99.90;;;;;;5036870;28;20449;-68
2022/09/24 09:46:00;;;;;;;0.40;0.40;;;16.40;99.90;;;;;;5036804;28;20261;-69
2022/09/24 09:48:54;;;;;;;0.40;0.40;;;16.30;99.90;;;;;;5035069;28;20221;-68
2022/09/24 09:51:47;;;;;;;0.40;0.40;;;16.40;99.90;;;;;;5034934;28;20324;-69
2022/09/24 09:54:40;;;;;;;0.40;0.40;;;16.40;99.90;;;;;;5039264;28;20194;-68
2022/09/24 09:57:29;;;;;;;0.40;0.40;;;16.40;99.90;;;;;;5046673;28;20213;-68
2022/09/24 10:00:35;;;;;;;0.40;0.40;;;16.40;99.90;;;;;;5055386;28;20595;-68
2022/09/24 10:03:26;;;;;;;0.40;0.40;;;16.40;99.90;;;;;;5054994;28;20693;-68
2022/09/24 10:06:23;;;;;;;1.93;1.83;;;16.40;99.90;;;;;;5055469;28;20202;-67
2022/09/24 10:09:19;;;;;;;0.40;0.40;;;16.40;99.90;;;;;;5055384;28;20232;-69
2022/09/24 10:12:16;;;;;;;0.60;0.60;;;16.20;99.90;;;;;;5055962;28;20201;-68
2022/09/24 10:15:16;;;;;;;0.40;0.40;;;16.20;99.90;;;;;;5055473;28;20198;-68
2022/09/24 10:18:06;;;;;;;0.40;0.40;;;16.30;99.90;;;;;;5055649;28;20263;-71
2022/09/24 10:20:55;;;;;;;0.40;0.40;;;16.40;99.90;;;;;;5055361;28;20229;-69
2022/09/24 10:23:47;;;;;;;0.40;0.40;;;16.50;99.90;;;;;;5056108;28;20351;-69
2022/09/24 10:26:36;;;;;;;0.50;0.50;;;16.60;99.90;;;;;;5056304;28;20197;-69
2022/09/24 10:32:40;;;;;;;0.40;0.40;;;16.90;99.90;;;;;;5055522;28;20298;-68
2022/09/24 10:35:32;;;;;;;0.40;0.40;;;17.00;99.90;;;;;;5055932;28;20261;-68
2022/09/24 10:38:23;;;;;;;0.40;0.40;;;17.20;99.90;;;;;;5055169;28;20198;-69
2022/09/24 10:41:21;;;;;;;0.40;0.40;;;17.40;99.90;;;;;;5055074;28;20201;-69
2022/09/24 10:44:11;;;;;;;0.40;0.40;;;17.60;99.90;;;;;;5062425;28;20224;-70
2022/09/24 10:47:22;;;;;;;0.57;0.57;;;17.80;99.90;;;;;;5068900;28;20232;-70
2022/09/24 10:50:27;;;;;;;0.50;0.50;;;18.00;99.90;;;;;;5066725;28;20221;-69
2022/09/24 10:53:26;;;;;;;1.70;1.60;;;18.10;99.90;;;;;;5069589;28;20256;-71
2022/09/24 10:56:24;;;;;;;0.40;0.40;;;18.30;99.90;;;;;;5069861;28;20205;-69
2022/09/24 10:59:38;;;;;;;0.45;0.45;;;18.60;99.90;;;;;;5066115;28;20201;-69
2022/09/24 11:02:41;;;;;;;0.40;0.40;;;18.70;99.90;;;;;;5067302;28;20223;-69
2022/09/24 11:05:33;;;;;;;0.40;0.40;;;19.00;99.90;;;;;;5068833;28;20677;-69
2022/09/24 11:08:39;;;;;;;0.40;0.40;;;19.30;99.90;;;;;;5066007;28;20553;-69
2022/09/24 11:11:39;;;;;;;0.40;0.40;;;19.50;99.90;;;;;;5060958;28;20252;-69
2022/09/24 11:14:45;;;;;;;0.40;0.40;;;19.80;99.90;;;;;;5064999;28;20201;-69
2022/09/24 11:17:37;;;;;;;0.40;0.40;;;20.00;99.90;;;;;;5068009;28;20628;-69
2022/09/24 11:20:33;;;;;;;0.40;0.40;;;20.30;99.90;;;;;;5058940;28;20231;-69
2022/09/24 11:23:46;;;;;;;1.40;1.40;;;20.10;99.90;;;;;;5058676;28;20757;-69
2022/09/24 11:26:47;;;;;;;0.40;0.40;;;20.30;99.90;;;;;;5059336;28;20247;-70
2022/09/24 11:29:56;;;;;;;1.08;0.95;;;20.30;99.90;;;;;;5058177;28;20262;-69
2022/09/24 11:33:05;;;;;;;0.40;0.40;;;20.30;99.90;;;;;;5056651;28;20751;-68
2022/09/24 11:36:26;;;;;;;0.40;0.40;;;20.20;99.90;;;;;;5055493;28;20246;-68
2022/09/24 11:39:30;;;;;;;0.40;0.40;;;20.10;99.90;;;;;;5054927;28;20335;-70
2022/09/24 11:42:24;;;;;;;0.40;0.40;;;20.10;99.90;;;;;;5054542;28;20701;-70
2022/09/24 11:45:31;;;;;;;0.40;0.40;;;20.10;99.90;;;;;;5054244;28;20572;-70
2022/09/24 11:48:39;;;;;;;0.63;0.63;;;19.90;99.90;;;;;;5054471;28;20197;-69
2022/09/24 11:51:42;;;;;;;0.40;0.40;;;19.90;99.90;;;;;;5053732;28;20270;-70
2022/09/24 11:54:36;;;;;;;0.95;0.95;;;20.00;99.90;;;;;;5053171;28;20197;-70
2022/09/24 11:57:29;;;;;;;0.40;0.40;;;20.20;99.90;;;;;;5053602;28;20284;-69
2022/09/24 12:00:19;;;;;;;0.40;0.40;;;20.30;99.90;;;;;;5053283;28;20723;-70
2022/09/24 12:03:17;;;;;;;0.40;0.40;;;20.40;99.90;;;;;;5053668;28;20314;-69
2022/09/24 12:06:15;;;;;;;0.50;0.50;;;20.20;99.90;;;;;;5054252;28;20232;-70
2022/09/24 12:09:15;;;;;;;0.80;0.80;;;20.10;99.90;;;;;;5053154;28;20205;-72
2022/09/24 12:12:08;;;;;;;0.40;0.40;;;20.20;99.90;;;;;;5053393;28;20284;-69
2022/09/24 12:15:02;;;;;;;0.40;0.40;;;20.30;99.90;;;;;;5054513;28;20197;-68
2022/09/24 12:17:53;;;;;;;0.40;0.40;;;20.40;99.90;;;;;;5053385;28;20206;-68
2022/09/24 12:20:48;;;;;;;1.75;1.65;;;20.30;99.90;;;;;;5053198;28;20201;-69
2022/09/24 12:23:41;;;;;;;0.40;0.40;;;20.40;99.90;;;;;;5052623;28;20287;-69
2022/09/24 12:26:31;;;;;;;0.40;0.40;;;20.20;99.90;;;;;;5052669;28;20275;-69
2022/09/24 12:32:54;;;;;;;0.98;0.98;;;20.40;99.90;;;;;;5052073;28;20302;-68
2022/09/24 12:35:52;;;;;;;0.40;0.40;;;20.50;99.90;;;;;;5053469;28;20201;-69
2022/09/24 12:38:45;;;;;;;0.40;0.40;;;20.50;99.90;;;;;;5056497;28;20209;-69
2022/09/24 12:41:35;;;;;;;0.40;0.40;;;20.60;99.90;;;;;;5057246;28;20197;-69
2022/09/24 12:44:31;;;;;;;1.80;1.70;;;20.50;99.90;;;;;;5056049;28;20233;-68
2022/09/24 12:47:22;;;;;;;0.40;0.30;;;20.40;99.90;;;;;;5055926;28;20261;-69
2022/09/24 12:50:20;;;;;;;0.60;0.60;;;20.30;99.90;;;;;;5056008;28;20252;-69
2022/09/24 12:53:23;;;;;;;0.40;0.40;;;20.30;99.90;;;;;;5056359;28;20244;-68
2022/09/24 12:56:12;;;;;;;0.40;0.40;;;20.30;99.90;;;;;;5056739;28;20220;-68
2022/09/24 12:59:01;;;;;;;0.40;0.40;;;20.30;99.90;;;;;;5055706;28;20197;-68
2022/09/24 13:01:50;;;;;;;0.40;0.40;;;20.50;99.90;;;;;;5057121;28;20570;-69
2022/09/24 13:04:44;;;;;;;0.40;0.40;;;20.50;99.90;;;;;;5055931;28;20197;-68
2022/09/24 13:07:35;;;;;;;0.40;0.40;;;20.80;99.90;;;;;;5055994;28;20197;-69
2022/09/24 13:10:26;;;;;;;0.40;0.40;;;20.80;99.90;;;;;;5049952;28;20240;-70
2022/09/24 13:13:25;;;;;;;0.40;0.40;;;21.00;99.90;;;;;;5089601;23;20231;-68
2022/09/24 13:16:18;;;;;;;0.50;0.50;;;21.00;99.90;;;;;;5094886;28;20200;-68
2022/09/24 13:19:27;;;;;;;0.40;0.40;;;21.00;99.90;;;;;;5094307;28;20577;-68
2022/09/24 13:22:22;;;;;;;0.40;0.40;;;20.90;99.90;;;;;;5095338;28;20283;-68
2022/09/24 13:25:23;;;;;;;0.40;0.40;;;20.90;99.90;;;;;;5074505;28;20283;-68
2022/09/24 13:28:24;;;;;;;0.40;0.40;;;20.90;99.90;;;;;;5074460;28;20224;-69
2022/09/24 13:31:18;;;;;;;0.40;0.40;;;20.90;99.90;;;;;;5075437;28;20841;-69
2022/09/24 13:34:17;;;;;;;0.40;0.40;;;20.70;99.90;;;;;;5074088;28;20224;-68
2022/09/24 13:37:15;;;;;;;0.40;0.40;;;20.90;99.90;;;;;;5073574;28;20204;-68
2022/09/24 13:40:07;;;;;;;2.25;2.05;;;21.00;99.90;;;;;;5075309;28;20269;-68
2022/09/24 13:43:01;;;;;;;0.40;0.40;;;21.00;99.90;;;;;;5073767;28;20238;-69
2022/09/24 13:45:50;;;;;;;0.40;0.40;;;21.00;99.90;;;;;;5074529;28;20211;-69
2022/09/24 13:48:42;;;;;;;0.40;0.40;;;20.90;99.90;;;;;;5074008;28;20201;-69
2022/09/24 13:51:36;;;;;;;0.40;0.40;;;21.00;99.90;;;;;;5075692;28;20217;-69
2022/09/24 13:54:33;;;;;;;0.55;0.55;;;21.20;99.90;;;;;;5074475;28;20248;-68
2022/09/24 13:57:25;;;;;;;0.40;0.40;;;21.30;99.90;;;;;;5076030;28;20201;-68
2022/09/24 14:00:18;;;;;;;0.40;0.40;;;21.10;99.90;;;;;;5077244;28;20224;-69
2022/09/24 14:03:21;;;;;;;0.40;0.40;;;20.90;99.90;;;;;;5088293;28;20235;-68
2022/09/24 14:06:11;;;;;;;0.40;0.40;;;20.50;99.90;;;;;;5092144;28;20226;-68
2022/09/24 14:09:01;;;;;;;0.40;0.40;;;20.30;99.90;;;;;;5088694;28;20277;-68
2022/09/24 14:11:50;;;;;;;0.40;0.40;;;20.00;99.90;;;;;;5079817;28;20224;-69
2022/09/24 14:14:44;;;;;;;0.40;0.40;;;19.90;99.90;;;;;;5093559;28;20251;-68
2022/09/24 14:17:32;;;;;;;0.40;0.40;;;19.60;99.90;;;;;;5096289;28;20264;-68
2022/09/24 14:20:21;;;;;;;0.40;0.40;;;19.40;99.90;;;;;;5095687;28;20252;-69
2022/09/24 14:23:17;;;;;;;0.40;0.40;;;19.10;99.90;;;;;;5096229;28;20240;-68
2022/09/24 14:26:08;;;;;;;0.40;0.40;;;19.00;99.90;;;;;;5095674;28;20211;-68
2022/09/24 14:28:59;;;;;;;0.40;0.40;;;18.90;99.90;;;;;;5091451;28;20223;-69
2022/09/24 14:31:51;;;;;;;0.40;0.40;;;18.90;99.90;;;;;;5091323;28;20255;-68
2022/09/24 14:34:41;;;;;;;0.40;0.40;;;19.00;99.90;;;;;;5091436;28;20282;-69
2022/09/24 14:37:31;;;;;;;0.40;0.40;;;19.00;99.90;;;;;;5094032;28;20205;-69
2022/09/24 14:40:22;;;;;;;0.40;0.40;;;19.10;99.90;;;;;;5089429;28;20495;-69
2022/09/24 14:43:18;;;;;;;0.40;0.40;;;19.10;99.90;;;;;;5083059;28;20671;-69
2022/09/24 14:46:09;;;;;;;0.40;0.40;;;19.00;99.90;;;;;;5075319;28;20201;-69
2022/09/24 14:49:05;;;;;;;0.40;0.40;;;19.10;99.90;;;;;;5076652;28;20201;-69
2022/09/24 14:51:55;;;;;;;0.40;0.40;;;18.90;99.90;;;;;;5075702;28;20223;-69
2022/09/24 14:54:43;;;;;;;0.40;0.40;;;18.90;99.90;;;;;;5075387;28;20247;-69
2022/09/24 14:57:37;;;;;;;0.70;0.70;;;18.80;99.90;;;;;;5064101;28;20197;-69
2022/09/24 15:00:28;;;;;;;0.40;0.40;;;18.90;99.90;;;;;;5057064;28;20228;-69
2022/09/24 15:03:19;;;;;;;0.40;0.40;;;18.90;99.90;;;;;;5056782;28;20248;-69
2022/09/24 15:06:19;;;;;;;0.40;0.40;;;18.90;99.90;;;;;;5055433;28;20201;-69
2022/09/24 15:09:23;;;;;;;0.40;0.40;;;18.90;99.90;;;;;;5055830;28;20287;-69
2022/09/24 15:12:19;;;;;;;0.50;0.50;;;18.90;99.90;;;;;;5056215;28;20221;-69
2022/09/24 15:15:27;;;;;;;0.40;0.40;;;18.70;99.90;;;;;;5055807;28;20283;-70